createdAt,value
2023-05-08T00:00:45.587Z,0.52
2023-05-08T00:01:45.627Z,0.52
2023-05-08T00:02:44.753Z,0.51
2023-05-08T00:03:44.883Z,0.52
2023-05-08T00:04:45.773Z,0.51
2023-05-08T00:05:44.945Z,0.52
2023-05-08T00:06:45.802Z,0.52
2023-05-08T00:07:44.986Z,0.52
2023-05-08T00:08:45.876Z,0.52
2023-05-08T00:09:45.975Z,0.52
2023-05-08T00:10:45.960Z,0.53
2023-05-08T00:11:45.997Z,0.52
2023-05-08T00:12:45.081Z,0.52
2023-05-08T00:13:46.092Z,0.52
2023-05-08T00:14:46.165Z,0.52
2023-05-08T00:15:45.215Z,0.53
2023-05-08T00:16:46.311Z,0.51
2023-05-08T00:17:46.304Z,0.52
2023-05-08T00:18:46.366Z,0.52
2023-05-08T00:19:45.359Z,0.51
2023-05-08T00:20:46.425Z,0.52
2023-05-08T00:21:46.449Z,0.52
2023-05-08T00:22:46.492Z,0.52
2023-05-08T00:23:46.547Z,0.51
2023-05-08T00:24:46.655Z,0.52
2023-05-08T00:25:46.693Z,0.52
2023-05-08T00:26:46.696Z,0.52
2023-05-08T00:27:46.754Z,0.52
2023-05-08T00:28:46.796Z,0.52
2023-05-08T00:29:46.857Z,0.51
2023-05-08T00:30:46.920Z,0.51
2023-05-08T00:31:47.014Z,0.52
2023-05-08T00:32:46.069Z,0.51
2023-05-08T00:33:46.063Z,0.51
2023-05-08T00:34:46.102Z,0.52
2023-05-08T00:35:46.166Z,0.52
2023-05-08T00:36:46.235Z,0.52
2023-05-08T00:37:46.255Z,0.51
2023-05-08T00:38:47.304Z,0.53
2023-05-08T00:39:47.383Z,0.51
2023-05-08T00:40:47.418Z,0.51
2023-05-08T00:41:47.560Z,0.50
2023-05-08T00:42:47.535Z,0.51
2023-05-08T00:43:46.587Z,0.51
2023-05-08T00:44:47.638Z,0.51
2023-05-08T00:45:47.742Z,0.52
2023-05-08T00:46:47.808Z,0.51
2023-05-08T00:47:47.918Z,0.52
2023-05-08T00:48:47.838Z,0.52
2023-05-08T00:49:47.911Z,0.51
2023-05-08T00:50:46.957Z,0.51
2023-05-08T00:51:48.100Z,0.51
2023-05-08T00:52:47.087Z,0.51
2023-05-08T00:53:48.144Z,0.52
2023-05-08T00:54:47.193Z,0.52
2023-05-08T00:55:48.205Z,0.52
2023-05-08T00:56:48.269Z,0.52
2023-05-08T00:57:47.345Z,0.51
2023-05-08T00:58:48.344Z,0.50
2023-05-08T00:59:48.516Z,0.52
2023-05-08T01:00:48.470Z,0.51
2023-05-08T01:01:48.552Z,0.51
2023-05-08T01:02:48.708Z,0.52
2023-05-08T01:03:48.774Z,0.51
2023-05-08T01:04:48.660Z,0.51
2023-05-08T01:05:47.696Z,0.51
2023-05-08T01:06:48.779Z,0.53
2023-05-08T01:07:49.789Z,0.53
2023-05-08T01:08:48.881Z,0.52
2023-05-08T01:09:47.926Z,0.52
2023-05-08T01:10:49.023Z,0.52
2023-05-08T01:11:49.025Z,0.51
2023-05-08T01:12:49.136Z,0.51
2023-05-08T01:13:49.155Z,0.51
2023-05-08T01:14:49.203Z,0.52
2023-05-08T01:15:49.308Z,0.53
2023-05-08T01:16:49.344Z,0.52
2023-05-08T01:17:49.484Z,0.51
2023-05-08T01:18:48.463Z,0.52
2023-05-08T01:19:49.500Z,0.52
2023-05-08T01:20:48.553Z,0.52
2023-05-08T01:21:48.597Z,0.52
2023-05-08T01:22:49.631Z,0.52
2023-05-08T01:23:48.701Z,0.53
2023-05-08T01:24:48.739Z,0.52
2023-05-08T01:25:49.788Z,0.52
2023-05-08T01:26:49.849Z,0.51
2023-05-08T01:27:49.881Z,0.51
2023-05-08T01:28:49.953Z,0.52
2023-05-08T01:29:49.972Z,0.53
2023-05-08T01:30:50.012Z,0.52
2023-05-08T01:31:50.062Z,0.52
2023-05-08T01:32:49.146Z,0.51
2023-05-08T01:33:50.207Z,0.53
2023-05-08T01:34:49.214Z,0.52
2023-05-08T01:35:50.251Z,0.52
2023-05-08T01:36:49.303Z,0.52
2023-05-08T01:37:49.331Z,0.52
2023-05-08T01:38:49.375Z,0.51
2023-05-08T01:39:49.487Z,0.53
2023-05-08T01:40:49.472Z,0.51
2023-05-08T01:41:49.553Z,0.52
2023-05-08T01:42:50.599Z,0.52
2023-05-08T01:43:50.629Z,0.53
2023-05-08T01:44:50.703Z,0.52
2023-05-08T01:45:50.702Z,0.52
2023-05-08T01:46:50.832Z,0.52
2023-05-08T01:47:50.855Z,0.51
2023-05-08T01:48:50.856Z,0.52
2023-05-08T01:49:51.105Z,0.51
2023-05-08T01:50:50.965Z,0.51
2023-05-08T01:51:49.989Z,0.52
2023-05-08T01:52:50.045Z,0.52
2023-05-08T01:53:51.088Z,0.53
2023-05-08T01:54:50.129Z,0.52
2023-05-08T01:55:51.221Z,0.52
2023-05-08T01:56:51.225Z,0.53
2023-05-08T01:57:51.290Z,0.53
2023-05-08T01:58:50.349Z,0.52
2023-05-08T01:59:51.389Z,0.52
2023-05-08T02:00:51.510Z,0.51
2023-05-08T02:01:50.531Z,0.53
2023-05-08T02:02:51.673Z,0.52
2023-05-08T02:03:51.644Z,0.51
2023-05-08T02:04:50.672Z,0.53
2023-05-08T02:05:50.733Z,0.52
2023-05-08T02:06:50.788Z,0.52
2023-05-08T02:07:51.840Z,0.52
2023-05-08T02:08:50.891Z,0.52
2023-05-08T02:09:51.582Z,0.51
2023-05-08T02:10:52.005Z,0.52
2023-05-08T02:11:52.057Z,0.52
2023-05-08T02:12:52.165Z,0.51
2023-05-08T02:13:52.168Z,0.52
2023-05-08T02:14:51.240Z,0.52
2023-05-08T02:15:52.320Z,0.52
2023-05-08T02:16:52.456Z,0.52
2023-05-08T02:17:52.479Z,0.52
2023-05-08T02:18:51.479Z,0.53
2023-05-08T02:19:52.503Z,0.52
2023-05-08T02:20:51.575Z,0.51
2023-05-08T02:21:52.607Z,0.52
2023-05-08T02:22:51.680Z,0.52
2023-05-08T02:23:52.709Z,0.52
2023-05-08T02:24:51.760Z,0.52
2023-05-08T02:25:52.843Z,0.52
2023-05-08T02:26:52.880Z,0.53
2023-05-08T02:27:52.949Z,0.52
2023-05-08T02:28:53.000Z,0.52
2023-05-08T02:29:53.046Z,0.52
2023-05-08T02:30:52.105Z,0.52
2023-05-08T02:31:53.212Z,0.53
2023-05-08T02:32:53.357Z,0.52
2023-05-08T02:33:53.264Z,0.52
2023-05-08T02:35:02.617Z,0.51
2023-05-08T02:35:53.315Z,0.51
2023-05-08T02:36:52.314Z,0.52
2023-05-08T02:37:53.319Z,0.52
2023-05-08T02:38:53.302Z,0.51
2023-05-08T02:39:53.302Z,0.51
2023-05-08T02:40:53.296Z,0.53
2023-05-08T02:41:53.339Z,0.52
2023-05-08T02:42:52.281Z,0.52
2023-05-08T02:43:53.267Z,0.52
2023-05-08T02:44:53.269Z,0.52
2023-05-08T02:45:52.271Z,0.52
2023-05-08T02:46:53.282Z,0.52
2023-05-08T02:47:52.370Z,0.52
2023-05-08T02:48:52.411Z,0.51
2023-05-08T02:49:53.448Z,0.52
2023-05-08T02:50:53.499Z,0.52
2023-05-08T02:51:53.533Z,0.52
2023-05-08T02:52:52.588Z,0.53
2023-05-08T02:53:52.664Z,0.51
2023-05-08T02:54:53.729Z,0.52
2023-05-08T02:55:52.771Z,0.52
2023-05-08T02:56:53.812Z,0.51
2023-05-08T02:57:53.880Z,0.51
2023-05-08T02:58:53.919Z,0.52
2023-05-08T02:59:52.970Z,0.52
2023-05-08T03:00:54.008Z,0.52
2023-05-08T03:01:54.182Z,0.52
2023-05-08T03:02:54.188Z,0.52
2023-05-08T03:03:54.295Z,0.52
2023-05-08T03:04:54.243Z,0.51
2023-05-08T03:05:54.286Z,0.51
2023-05-08T03:06:53.351Z,0.51
2023-05-08T03:07:54.395Z,0.52
2023-05-08T03:08:54.463Z,0.52
2023-05-08T03:09:54.513Z,0.51
2023-05-08T03:10:54.558Z,0.51
2023-05-08T03:11:54.634Z,0.52
2023-05-08T03:12:54.713Z,0.51
2023-05-08T03:13:54.751Z,0.53
2023-05-08T03:14:53.793Z,0.53
2023-05-08T03:15:54.884Z,0.51
2023-05-08T03:16:54.916Z,0.52
2023-05-08T03:17:54.972Z,0.53
2023-05-08T03:18:55.038Z,0.51
2023-05-08T03:19:54.108Z,0.52
2023-05-08T03:20:55.126Z,0.53
2023-05-08T03:21:54.202Z,0.51
2023-05-08T03:22:55.255Z,0.52
2023-05-08T03:23:54.305Z,0.51
2023-05-08T03:24:55.348Z,0.51
2023-05-08T03:25:54.430Z,0.51
2023-05-08T03:26:54.468Z,0.51
2023-05-08T03:27:55.532Z,0.52
2023-05-08T03:28:55.575Z,0.52
2023-05-08T03:29:55.630Z,0.52
2023-05-08T03:30:55.703Z,0.51
2023-05-08T03:31:54.748Z,0.52
2023-05-08T03:32:55.864Z,0.51
2023-05-08T03:33:55.958Z,0.52
2023-05-08T03:34:54.923Z,0.51
2023-05-08T03:35:56.031Z,0.51
2023-05-08T03:36:55.031Z,0.51
2023-05-08T03:37:56.100Z,0.51
2023-05-08T03:38:56.161Z,0.52
2023-05-08T03:39:55.217Z,0.52
2023-05-08T03:40:56.263Z,0.52
2023-05-08T03:41:56.334Z,0.51
2023-05-08T03:42:56.382Z,0.51
2023-05-08T03:43:56.414Z,0.51
2023-05-08T03:44:55.467Z,0.51
2023-05-08T03:45:56.528Z,0.51
2023-05-08T03:46:56.780Z,0.52
2023-05-08T03:47:56.745Z,0.51
2023-05-08T03:48:55.734Z,0.51
2023-05-08T03:49:56.729Z,0.52
2023-05-08T03:50:56.778Z,0.50
2023-05-08T03:51:55.884Z,0.52
2023-05-08T03:52:55.903Z,0.51
2023-05-08T03:53:56.035Z,0.52
2023-05-08T03:54:57.035Z,0.52
2023-05-08T03:55:56.125Z,0.53
2023-05-08T03:56:56.157Z,0.51
2023-05-08T03:57:57.222Z,0.52
2023-05-08T03:58:57.333Z,0.52
2023-05-08T03:59:57.352Z,0.52
2023-05-08T04:00:57.433Z,0.52
2023-05-08T04:01:57.525Z,0.52
2023-05-08T04:02:57.648Z,0.52
2023-05-08T04:03:57.668Z,0.53
2023-05-08T04:04:56.662Z,0.52
2023-05-08T04:05:57.743Z,0.52
2023-05-08T04:06:56.810Z,0.52
2023-05-08T04:07:57.895Z,0.52
2023-05-08T04:08:57.982Z,0.52
2023-05-08T04:09:57.005Z,0.52
2023-05-08T04:10:58.050Z,0.53
2023-05-08T04:11:58.116Z,0.51
2023-05-08T04:12:57.458Z,0.52
2023-05-08T04:13:57.237Z,0.51
2023-05-08T04:14:58.361Z,0.52
2023-05-08T04:15:58.361Z,0.52
2023-05-08T04:16:58.539Z,0.51
2023-05-08T04:17:58.537Z,0.51
2023-05-08T04:18:57.587Z,0.52
2023-05-08T04:19:58.613Z,0.51
2023-05-08T04:20:57.693Z,0.52
2023-05-08T04:21:58.719Z,0.51
2023-05-08T04:22:58.807Z,0.52
2023-05-08T04:23:57.909Z,0.53
2023-05-08T04:24:57.918Z,0.52
2023-05-08T04:25:59.628Z,0.52
2023-05-08T04:26:59.040Z,0.52
2023-05-08T04:27:59.086Z,0.52
2023-05-08T04:28:59.155Z,0.52
2023-05-08T04:29:58.196Z,0.52
2023-05-08T04:30:59.288Z,0.51
2023-05-08T04:31:59.352Z,0.52
2023-05-08T04:32:58.413Z,0.52
2023-05-08T04:33:58.468Z,0.51
2023-05-08T04:34:59.517Z,0.53
2023-05-08T04:35:59.566Z,0.51
2023-05-08T04:36:58.635Z,0.52
2023-05-08T04:37:58.690Z,0.52
2023-05-08T04:38:59.278Z,0.52
2023-05-08T04:39:58.835Z,0.52
2023-05-08T04:40:59.888Z,0.52
2023-05-08T04:41:59.922Z,0.52
2023-05-08T04:42:58.966Z,0.51
2023-05-08T04:44:00.030Z,0.53
2023-05-08T04:45:00.179Z,0.52
2023-05-08T04:46:00.238Z,0.51
2023-05-08T04:47:00.219Z,0.51
2023-05-08T04:47:59.328Z,0.52
2023-05-08T04:48:59.360Z,0.52
2023-05-08T04:50:02.095Z,0.52
2023-05-08T04:50:59.449Z,0.52
2023-05-08T04:52:00.404Z,0.52
2023-05-08T04:52:59.419Z,0.53
2023-05-08T04:54:00.397Z,0.52
2023-05-08T04:54:59.411Z,0.52
2023-05-08T04:56:00.411Z,0.52
2023-05-08T04:56:59.373Z,0.52
2023-05-08T04:58:00.377Z,0.53
2023-05-08T04:58:59.351Z,0.52
2023-05-08T05:00:00.393Z,0.52
2023-05-08T05:01:00.334Z,0.53
2023-05-08T05:02:00.460Z,0.52
2023-05-08T05:03:00.380Z,0.53
2023-05-08T05:04:00.459Z,0.52
2023-05-08T05:05:00.352Z,0.53
2023-05-08T05:06:00.337Z,0.52
2023-05-08T05:07:00.292Z,0.52
2023-05-08T05:08:00.296Z,0.53
2023-05-08T05:08:59.330Z,0.51
2023-05-08T05:10:00.316Z,0.52
2023-05-08T05:11:00.363Z,0.53
2023-05-08T05:11:59.292Z,0.51
2023-05-08T05:12:59.316Z,0.52
2023-05-08T05:14:00.289Z,0.52
2023-05-08T05:15:00.503Z,0.53
2023-05-08T05:15:59.515Z,0.52
2023-05-08T05:17:00.694Z,0.51
2023-05-08T05:18:00.584Z,0.53
2023-05-08T05:19:00.611Z,0.52
2023-05-08T05:20:00.753Z,0.52
2023-05-08T05:20:59.715Z,0.52
2023-05-08T05:22:00.789Z,0.51
2023-05-08T05:23:00.867Z,0.51
2023-05-08T05:23:59.904Z,0.52
2023-05-08T05:24:59.964Z,0.52
2023-05-08T05:26:01.075Z,0.52
2023-05-08T05:27:01.093Z,0.51
2023-05-08T05:28:01.107Z,0.51
2023-05-08T05:29:00.215Z,0.51
2023-05-08T05:30:00.253Z,0.52
2023-05-08T05:31:01.347Z,0.51
2023-05-08T05:32:01.050Z,0.51
2023-05-08T05:33:02.054Z,0.53
2023-05-08T05:34:02.031Z,0.51
2023-05-08T05:35:01.703Z,0.52
2023-05-08T05:36:02.143Z,0.51
2023-05-08T05:37:01.080Z,0.52
2023-05-08T05:38:02.424Z,0.52
2023-05-08T05:39:01.573Z,0.52
2023-05-08T05:40:02.493Z,0.53
2023-05-08T05:41:01.553Z,0.52
2023-05-08T05:42:01.633Z,0.52
2023-05-08T05:43:01.118Z,0.52
2023-05-08T05:44:01.937Z,0.52
2023-05-08T05:45:02.745Z,0.53
2023-05-08T05:46:03.576Z,0.55
2023-05-08T05:47:02.530Z,0.58
2023-05-08T05:48:02.794Z,0.58
2023-05-08T05:49:01.358Z,0.57
2023-05-08T05:50:04.156Z,0.57
2023-05-08T05:51:02.497Z,0.58
2023-05-08T05:52:01.668Z,0.58
2023-05-08T05:53:02.503Z,0.58
2023-05-08T05:54:02.959Z,0.58
2023-05-08T05:55:02.676Z,0.60
2023-05-08T05:56:02.016Z,0.61
2023-05-08T05:57:01.296Z,0.62
2023-05-08T05:58:03.467Z,0.66
2023-05-08T05:59:01.930Z,0.65
2023-05-08T06:00:02.482Z,0.64
2023-05-08T06:01:03.213Z,0.65
2023-05-08T06:02:02.521Z,0.66
2023-05-08T06:03:02.062Z,0.65
2023-05-08T06:04:01.571Z,0.67
2023-05-08T06:05:02.801Z,0.68
2023-05-08T06:06:02.810Z,0.70
2023-05-08T06:07:02.391Z,0.72
2023-05-08T06:08:01.372Z,0.71
2023-05-08T06:09:01.549Z,0.71
2023-05-08T06:10:02.435Z,0.72
2023-05-08T06:11:02.912Z,0.70
2023-05-08T06:12:01.625Z,0.67
2023-05-08T06:13:01.672Z,0.64
2023-05-08T06:14:02.336Z,0.66
2023-05-08T06:15:01.322Z,0.63
2023-05-08T06:16:02.325Z,0.63
2023-05-08T06:17:01.336Z,0.62
2023-05-08T06:18:01.326Z,0.62
2023-05-08T06:19:02.357Z,0.61
2023-05-08T06:20:02.382Z,0.62
2023-05-08T06:21:01.334Z,0.60
2023-05-08T06:22:02.287Z,0.60
2023-05-08T06:23:02.289Z,0.60
2023-05-08T06:24:02.296Z,0.63
2023-05-08T06:25:02.353Z,0.63
2023-05-08T06:26:02.285Z,0.63
2023-05-08T06:27:01.293Z,0.68
2023-05-08T06:28:01.295Z,0.71
2023-05-08T06:29:02.326Z,0.72
2023-05-08T06:30:02.493Z,0.69
2023-05-08T06:31:01.417Z,0.70
2023-05-08T06:32:02.462Z,0.69
2023-05-08T06:33:02.375Z,0.69
2023-05-08T06:34:01.334Z,0.67
2023-05-08T06:35:02.408Z,0.66
2023-05-08T06:36:01.381Z,0.68
2023-05-08T06:37:01.388Z,0.69
2023-05-08T06:38:01.370Z,0.69
2023-05-08T06:39:01.380Z,0.70
2023-05-08T06:40:11.491Z,0.70
2023-05-08T06:41:02.436Z,0.70
2023-05-08T06:42:02.426Z,0.71
2023-05-08T06:43:01.419Z,0.70
2023-05-08T06:44:01.434Z,0.70
2023-05-08T06:45:01.529Z,0.71
2023-05-08T06:46:01.485Z,0.69
2023-05-08T06:47:01.426Z,0.69
2023-05-08T06:48:01.449Z,0.71
2023-05-08T06:49:01.409Z,0.70
2023-05-08T06:50:02.375Z,0.74
2023-05-08T06:51:02.418Z,0.70
2023-05-08T06:52:02.442Z,0.69
2023-05-08T06:53:02.191Z,0.67
2023-05-08T06:54:01.379Z,0.66
2023-05-08T06:55:02.424Z,0.69
2023-05-08T06:56:01.775Z,0.73
2023-05-08T06:57:01.419Z,0.76
2023-05-08T06:58:01.338Z,0.78
2023-05-08T06:59:08.579Z,0.78
2023-05-08T07:00:02.304Z,0.78
2023-05-08T07:01:02.394Z,0.79
2023-05-08T07:02:01.421Z,0.80
2023-05-08T07:03:02.662Z,0.83
2023-05-08T07:04:02.315Z,0.86
2023-05-08T07:05:02.453Z,0.83
2023-05-08T07:06:01.344Z,0.86
2023-05-08T07:07:01.331Z,0.88
2023-05-08T07:08:01.295Z,0.87
2023-05-08T07:09:03.295Z,0.88
2023-05-08T07:10:01.308Z,0.84
2023-05-08T07:11:01.295Z,0.91
2023-05-08T07:12:01.315Z,0.87
2023-05-08T07:13:01.298Z,0.84
2023-05-08T07:14:01.225Z,0.86
2023-05-08T07:15:10.693Z,0.83
2023-05-08T07:16:02.241Z,0.83
2023-05-08T07:17:01.213Z,0.83
2023-05-08T07:18:01.240Z,0.83
2023-05-08T07:19:02.279Z,0.81
2023-05-08T07:20:01.181Z,0.83
2023-05-08T07:21:02.325Z,0.87
2023-05-08T07:22:01.392Z,0.86
2023-05-08T07:23:02.141Z,0.86
2023-05-08T07:24:01.142Z,0.87
2023-05-08T07:25:02.177Z,0.89
2023-05-08T07:26:01.137Z,0.91
2023-05-08T07:27:01.165Z,0.90
2023-05-08T07:28:02.149Z,0.88
2023-05-08T07:29:01.106Z,0.86
2023-05-08T07:30:01.109Z,0.91
2023-05-08T07:31:01.162Z,0.92
2023-05-08T07:32:01.258Z,0.92
2023-05-08T07:33:01.169Z,0.92
2023-05-08T07:34:01.071Z,0.92
2023-05-08T07:35:10.292Z,0.90
2023-05-08T07:36:02.088Z,0.90
2023-05-08T07:37:01.109Z,0.91
2023-05-08T07:38:01.067Z,0.92
2023-05-08T07:39:02.052Z,0.93
2023-05-08T07:40:02.035Z,0.96
2023-05-08T07:41:01.083Z,0.99
2023-05-08T07:42:02.005Z,0.99
2023-05-08T07:43:02.005Z,1.01
2023-05-08T07:44:01.998Z,1.04
2023-05-08T07:45:01.090Z,1.05
2023-05-08T07:46:01.070Z,1.06
2023-05-08T07:47:01.130Z,1.08
2023-05-08T07:48:01.017Z,1.13
2023-05-08T07:49:00.968Z,1.16
2023-05-08T07:50:01.988Z,1.19
2023-05-08T07:51:02.315Z,1.20
2023-05-08T07:52:00.920Z,1.24
2023-05-08T07:53:01.964Z,1.24
2023-05-08T07:54:00.932Z,1.31
2023-05-08T07:55:00.985Z,1.36
2023-05-08T07:56:00.910Z,1.40
2023-05-08T07:57:01.928Z,1.39
2023-05-08T07:58:01.894Z,1.44
2023-05-08T07:59:00.895Z,1.44
2023-05-08T08:00:00.877Z,1.47
2023-05-08T08:01:01.947Z,1.49
2023-05-08T08:02:01.968Z,1.52
2023-05-08T08:03:01.981Z,1.53
2023-05-08T08:04:01.045Z,1.57
2023-05-08T08:05:00.855Z,1.60
2023-05-08T08:06:01.869Z,1.62
2023-05-08T08:07:01.879Z,1.65
2023-05-08T08:08:00.866Z,1.68
2023-05-08T08:09:01.859Z,1.70
2023-05-08T08:10:00.876Z,1.74
2023-05-08T08:11:02.948Z,1.77
2023-05-08T08:12:01.860Z,1.81
2023-05-08T08:13:01.935Z,1.85
2023-05-08T08:14:01.876Z,1.87
2023-05-08T08:15:02.752Z,1.89
2023-05-08T08:16:00.790Z,1.99
2023-05-08T08:17:00.818Z,1.99
2023-05-08T08:18:00.895Z,2.09
2023-05-08T08:19:01.771Z,2.06
2023-05-08T08:20:01.790Z,2.02
2023-05-08T08:21:00.836Z,2.09
2023-05-08T08:22:00.800Z,2.15
2023-05-08T08:23:00.942Z,2.17
2023-05-08T08:24:00.842Z,2.22
2023-05-08T08:25:00.788Z,2.25
2023-05-08T08:26:00.733Z,2.29
2023-05-08T08:27:01.700Z,2.30
2023-05-08T08:28:00.728Z,2.30
2023-05-08T08:29:00.724Z,2.40
2023-05-08T08:30:12.900Z,2.46
2023-05-08T08:31:01.788Z,2.46
2023-05-08T08:32:00.714Z,2.47
2023-05-08T08:33:01.739Z,2.49
2023-05-08T08:34:01.696Z,2.57
2023-05-08T08:35:00.751Z,2.61
2023-05-08T08:36:00.667Z,2.65
2023-05-08T08:37:00.668Z,2.63
2023-05-08T08:38:00.709Z,2.65
2023-05-08T08:39:01.779Z,2.72
2023-05-08T08:40:01.702Z,2.81
2023-05-08T08:41:00.651Z,2.84
2023-05-08T08:42:01.611Z,2.87
2023-05-08T08:43:00.655Z,2.93
2023-05-08T08:44:01.589Z,2.92
2023-05-08T08:45:00.589Z,3.13
2023-05-08T08:46:01.630Z,3.20
2023-05-08T08:47:01.580Z,3.11
2023-05-08T08:48:01.629Z,3.17
2023-05-08T08:49:00.579Z,3.12
2023-05-08T08:50:00.601Z,3.10
2023-05-08T08:51:00.657Z,3.12
2023-05-08T08:52:00.525Z,3.08
2023-05-08T08:53:01.530Z,3.76
2023-05-08T08:54:00.523Z,4.28
2023-05-08T08:55:00.706Z,4.41
2023-05-08T08:56:00.557Z,4.48
2023-05-08T08:57:00.561Z,4.32
2023-05-08T08:58:01.493Z,4.37
2023-05-08T08:59:01.490Z,4.29
2023-05-08T09:00:00.487Z,4.36
2023-05-08T09:01:01.788Z,4.24
2023-05-08T09:02:00.558Z,4.22
2023-05-08T09:03:00.585Z,4.26
2023-05-08T09:04:00.581Z,4.22
2023-05-08T09:05:00.431Z,4.32
2023-05-08T09:06:01.457Z,4.33
2023-05-08T09:07:00.478Z,4.27
2023-05-08T09:08:01.501Z,4.32
2023-05-08T09:09:00.539Z,4.25
2023-05-08T09:10:00.617Z,4.38
2023-05-08T09:11:01.798Z,4.31
2023-05-08T09:12:00.735Z,4.36
2023-05-08T09:13:01.818Z,4.37
2023-05-08T09:14:01.853Z,4.43
2023-05-08T09:15:01.965Z,4.46
2023-05-08T09:16:02.110Z,4.49
2023-05-08T09:17:02.028Z,4.56
2023-05-08T09:18:02.104Z,4.51
2023-05-08T09:19:03.334Z,4.63
2023-05-08T09:20:01.096Z,4.71
2023-05-08T09:21:02.122Z,4.73
2023-05-08T09:22:01.131Z,4.96
2023-05-08T09:23:02.086Z,4.80
2023-05-08T09:24:02.101Z,4.85
2023-05-08T09:25:02.074Z,4.82
2023-05-08T09:26:02.217Z,4.88
2023-05-08T09:27:02.222Z,4.94
2023-05-08T09:28:02.089Z,4.91
2023-05-08T09:29:01.059Z,4.98
2023-05-08T09:30:02.085Z,5.02
2023-05-08T09:31:02.040Z,5.20
2023-05-08T09:32:02.072Z,5.17
2023-05-08T09:33:02.147Z,5.18
2023-05-08T09:34:01.010Z,5.23
2023-05-08T09:35:02.082Z,5.38
2023-05-08T09:36:01.031Z,5.34
2023-05-08T09:37:02.002Z,5.30
2023-05-08T09:38:01.042Z,5.49
2023-05-08T09:39:03.014Z,5.44
2023-05-08T09:40:01.009Z,5.43
2023-05-08T09:41:00.982Z,5.36
2023-05-08T09:42:02.004Z,5.52
2023-05-08T09:43:02.101Z,5.54
2023-05-08T09:44:02.004Z,5.70
2023-05-08T09:45:01.956Z,5.70
2023-05-08T09:46:02.043Z,5.67
2023-05-08T09:47:00.948Z,6.17
2023-05-08T09:48:01.048Z,6.07
2023-05-08T09:49:02.048Z,6.00
2023-05-08T09:50:02.046Z,5.70
2023-05-08T09:51:02.083Z,5.85
2023-05-08T09:52:02.310Z,5.85
2023-05-08T09:53:01.139Z,5.72
2023-05-08T09:54:01.191Z,5.50
2023-05-08T09:55:02.237Z,5.48
2023-05-08T09:56:02.263Z,5.41
2023-05-08T09:57:01.410Z,5.45
2023-05-08T09:58:01.375Z,5.36
2023-05-08T09:59:01.506Z,5.56
2023-05-08T10:00:02.445Z,5.62
2023-05-08T10:01:02.545Z,5.64
2023-05-08T10:02:02.521Z,5.62
2023-05-08T10:03:01.561Z,5.36
2023-05-08T10:04:01.616Z,5.08
2023-05-08T10:05:02.673Z,5.28
2023-05-08T10:06:02.682Z,4.93
2023-05-08T10:07:01.652Z,5.02
2023-05-08T10:08:02.679Z,5.05
2023-05-08T10:09:01.725Z,3.99
2023-05-08T10:10:02.805Z,3.11
2023-05-08T10:11:01.834Z,2.85
2023-05-08T10:12:02.895Z,3.12
2023-05-08T10:13:01.959Z,2.40
2023-05-08T10:14:02.002Z,2.17
2023-05-08T10:15:02.300Z,2.20
2023-05-08T10:16:03.088Z,1.91
2023-05-08T10:17:02.187Z,1.70
2023-05-08T10:18:03.315Z,1.76
2023-05-08T10:19:02.263Z,1.73
2023-05-08T10:20:03.299Z,1.66
2023-05-08T10:21:03.337Z,1.68
2023-05-08T10:22:03.373Z,1.43
2023-05-08T10:23:02.451Z,1.50
2023-05-08T10:24:02.459Z,1.58
2023-05-08T10:25:03.708Z,1.46
2023-05-08T10:26:03.533Z,1.59
2023-05-08T10:27:07.308Z,1.59
2023-05-08T10:28:03.614Z,1.50
2023-05-08T10:29:02.578Z,1.35
2023-05-08T10:30:02.554Z,1.42
2023-05-08T10:31:02.767Z,1.28
2023-05-08T10:32:03.541Z,1.40
2023-05-08T10:33:02.606Z,1.37
2023-05-08T10:34:02.538Z,1.25
2023-05-08T10:35:03.536Z,1.18
2023-05-08T10:36:03.547Z,1.17
2023-05-08T10:37:03.532Z,1.22
2023-05-08T10:38:02.628Z,1.10
2023-05-08T10:39:03.595Z,1.10
2023-05-08T10:40:02.556Z,1.16
2023-05-08T10:41:02.479Z,1.26
2023-05-08T10:42:03.805Z,1.29
2023-05-08T10:43:03.556Z,1.27
2023-05-08T10:44:03.432Z,1.21
2023-05-08T10:45:02.477Z,1.27
2023-05-08T10:46:03.511Z,1.30
2023-05-08T10:47:02.898Z,1.35
2023-05-08T10:48:02.565Z,1.33
2023-05-08T10:49:02.552Z,1.31
2023-05-08T10:50:02.448Z,1.30
2023-05-08T10:51:03.429Z,1.30
2023-05-08T10:52:02.461Z,1.33
2023-05-08T10:53:02.471Z,1.34
2023-05-08T10:54:02.413Z,1.33
2023-05-08T10:55:02.449Z,1.33
2023-05-08T10:56:02.422Z,1.33
2023-05-08T10:57:02.557Z,1.31
2023-05-08T10:58:02.443Z,1.30
2023-05-08T10:59:02.462Z,1.28
2023-05-08T11:00:02.430Z,1.30
2023-05-08T11:01:04.318Z,1.30
2023-05-08T11:02:02.392Z,1.30
2023-05-08T11:03:02.525Z,1.32
2023-05-08T11:04:02.425Z,1.29
2023-05-08T11:05:03.401Z,1.31
2023-05-08T11:06:02.346Z,1.32
2023-05-08T11:07:03.442Z,1.32
2023-05-08T11:08:02.305Z,1.33
2023-05-08T11:09:03.320Z,1.31
2023-05-08T11:10:03.325Z,1.31
2023-05-08T11:11:02.290Z,1.33
2023-05-08T11:12:03.390Z,1.34
2023-05-08T11:13:02.453Z,1.32
2023-05-08T11:14:02.278Z,1.32
2023-05-08T11:15:02.308Z,1.31
2023-05-08T11:16:02.331Z,1.33
2023-05-08T11:17:02.311Z,1.32
2023-05-08T11:18:03.371Z,1.32
2023-05-08T11:19:02.339Z,1.34
2023-05-08T11:20:02.243Z,1.33
2023-05-08T11:21:02.289Z,1.30
2023-05-08T11:22:03.287Z,1.29
2023-05-08T11:23:03.284Z,1.33
2023-05-08T11:24:03.204Z,1.33
2023-05-08T11:25:02.242Z,1.30
2023-05-08T11:26:02.231Z,1.32
2023-05-08T11:27:03.196Z,1.30
2023-05-08T11:28:03.245Z,1.31
2023-05-08T11:29:02.192Z,1.31
2023-05-08T11:30:03.244Z,1.31
2023-05-08T11:31:03.244Z,1.28
2023-05-08T11:32:02.211Z,1.31
2023-05-08T11:33:02.227Z,1.29
2023-05-08T11:34:03.188Z,1.30
2023-05-08T11:35:03.222Z,1.28
2023-05-08T11:36:02.173Z,1.30
2023-05-08T11:37:03.211Z,1.30
2023-05-08T11:38:02.196Z,1.28
2023-05-08T11:39:03.141Z,1.26
2023-05-08T11:40:02.157Z,1.28
2023-05-08T11:41:02.113Z,1.28
2023-05-08T11:42:03.139Z,1.25
2023-05-08T11:43:02.186Z,1.27
2023-05-08T11:44:02.119Z,1.26
2023-05-08T11:45:03.391Z,1.27
2023-05-08T11:46:02.112Z,1.28
2023-05-08T11:47:02.167Z,1.29
2023-05-08T11:48:03.127Z,1.26
2023-05-08T11:49:02.086Z,1.27
2023-05-08T11:50:02.103Z,1.25
2023-05-08T11:51:02.065Z,1.27
2023-05-08T11:52:03.014Z,1.26
2023-05-08T11:53:02.128Z,1.28
2023-05-08T11:54:02.052Z,1.25
2023-05-08T11:55:02.985Z,1.26
2023-05-08T11:56:02.998Z,1.29
2023-05-08T11:57:03.010Z,1.25
2023-05-08T11:58:03.078Z,1.26
2023-05-08T11:59:01.977Z,1.27
2023-05-08T12:00:02.968Z,1.26
2023-05-08T12:01:03.007Z,1.26
2023-05-08T12:02:08.345Z,1.26
2023-05-08T12:03:03.254Z,1.26
2023-05-08T12:04:02.197Z,1.26
2023-05-08T12:05:02.960Z,1.26
2023-05-08T12:06:02.957Z,1.27
2023-05-08T12:07:02.985Z,1.27
2023-05-08T12:08:01.897Z,1.25
2023-05-08T12:09:03.002Z,1.27
2023-05-08T12:10:01.943Z,1.27
2023-05-08T12:11:01.931Z,1.27
2023-05-08T12:12:02.863Z,1.27
2023-05-08T12:13:02.939Z,1.26
2023-05-08T12:14:02.871Z,1.27
2023-05-08T12:15:01.869Z,1.26
2023-05-08T12:16:01.911Z,1.26
2023-05-08T12:17:01.864Z,1.27
2023-05-08T12:18:02.953Z,1.25
2023-05-08T12:19:01.868Z,1.27
2023-05-08T12:20:01.856Z,1.25
2023-05-08T12:21:01.865Z,1.25
2023-05-08T12:22:02.790Z,1.25
2023-05-08T12:23:02.821Z,1.25
2023-05-08T12:24:01.880Z,1.25
2023-05-08T12:25:02.912Z,1.23
2023-05-08T12:26:01.773Z,1.23
2023-05-08T12:27:01.846Z,1.26
2023-05-08T12:28:01.766Z,1.24
2023-05-08T12:29:01.748Z,1.23
2023-05-08T12:30:02.843Z,1.21
2023-05-08T12:31:01.848Z,1.23
2023-05-08T12:32:01.818Z,1.22
2023-05-08T12:33:01.857Z,1.20
2023-05-08T12:34:01.713Z,1.23
2023-05-08T12:35:01.802Z,1.23
2023-05-08T12:36:01.740Z,1.23
2023-05-08T12:37:02.803Z,1.22
2023-05-08T12:38:01.840Z,1.22
2023-05-08T12:39:02.869Z,1.21
2023-05-08T12:40:01.858Z,1.22
2023-05-08T12:41:01.774Z,1.20
2023-05-08T12:42:02.776Z,1.22
2023-05-08T12:43:02.790Z,1.23
2023-05-08T12:44:01.770Z,1.20
2023-05-08T12:45:01.774Z,1.20
2023-05-08T12:46:02.788Z,1.19
2023-05-08T12:47:02.870Z,1.06
2023-05-08T12:48:02.837Z,0.99
2023-05-08T12:49:02.825Z,0.97
2023-05-08T12:50:02.857Z,0.82
2023-05-08T12:51:02.907Z,0.74
2023-05-08T12:52:02.900Z,0.84
2023-05-08T12:53:02.942Z,0.82
2023-05-08T12:54:02.937Z,0.83
2023-05-08T12:55:02.150Z,0.84
2023-05-08T12:56:03.035Z,0.85
2023-05-08T12:57:03.111Z,0.86
2023-05-08T12:58:03.243Z,0.85
2023-05-08T12:59:03.228Z,0.88
2023-05-08T13:00:04.475Z,0.87
2023-05-08T13:01:03.450Z,0.88
2023-05-08T13:02:03.540Z,0.89
2023-05-08T13:03:03.633Z,0.90
2023-05-08T13:04:03.784Z,0.89
2023-05-08T13:05:03.620Z,0.91
2023-05-08T13:06:02.644Z,0.91
2023-05-08T13:07:02.702Z,0.90
2023-05-08T13:08:02.731Z,0.92
2023-05-08T13:09:03.772Z,0.91
2023-05-08T13:10:02.780Z,0.92
2023-05-08T13:11:03.942Z,0.90
2023-05-08T13:12:02.874Z,0.91
2023-05-08T13:13:03.984Z,0.91
2023-05-08T13:14:03.904Z,0.90
2023-05-08T13:15:03.926Z,0.93
2023-05-08T13:16:02.969Z,0.90
2023-05-08T13:17:03.951Z,0.90
2023-05-08T13:18:03.078Z,0.90
2023-05-08T13:19:03.009Z,0.90